sensor_id;sensor_type;location;lat;lon;timestamp;P1;durP1;ratioP1;P2;durP2;ratioP2
65477;SDS011;53678;39.642;22.430;2024-02-21T00:02:11;21.90;;;13.02;;
65477;SDS011;53678;39.642;22.430;2024-02-21T00:04:37;20.88;;;12.20;;
65477;SDS011;53678;39.642;22.430;2024-02-21T00:07:04;19.38;;;12.35;;
65477;SDS011;53678;39.642;22.430;2024-02-21T00:09:30;18.70;;;11.77;;
65477;SDS011;53678;39.642;22.430;2024-02-21T00:11:56;20.58;;;12.15;;
65477;SDS011;53678;39.642;22.430;2024-02-21T00:14:22;20.27;;;11.55;;
65477;SDS011;53678;39.642;22.430;2024-02-21T00:16:48;21.08;;;12.27;;
65477;SDS011;53678;39.642;22.430;2024-02-21T00:19:14;19.17;;;12.20;;
65477;SDS011;53678;39.642;22.430;2024-02-21T00:21:40;22.33;;;13.70;;
65477;SDS011;53678;39.642;22.430;2024-02-21T00:24:06;23.42;;;13.60;;
65477;SDS011;53678;39.642;22.430;2024-02-21T00:26:32;17.85;;;11.90;;
65477;SDS011;53678;39.642;22.430;2024-02-21T00:28:57;21.58;;;13.00;;
65477;SDS011;53678;39.642;22.430;2024-02-21T00:31:23;16.98;;;11.52;;
65477;SDS011;53678;39.642;22.430;2024-02-21T00:33:49;17.58;;;12.05;;
65477;SDS011;53678;39.642;22.430;2024-02-21T00:36:15;20.85;;;12.93;;
65477;SDS011;53678;39.642;22.430;2024-02-21T00:38:41;18.55;;;11.82;;
65477;SDS011;53678;39.642;22.430;2024-02-21T00:41:07;21.05;;;13.25;;
65477;SDS011;53678;39.642;22.430;2024-02-21T00:43:33;23.40;;;11.98;;
65477;SDS011;53678;39.642;22.430;2024-02-21T00:45:59;23.98;;;13.43;;
65477;SDS011;53678;39.642;22.430;2024-02-21T00:48:25;23.55;;;14.40;;
65477;SDS011;53678;39.642;22.430;2024-02-21T00:50:50;21.77;;;14.32;;
65477;SDS011;53678;39.642;22.430;2024-02-21T00:53:18;22.38;;;14.15;;
65477;SDS011;53678;39.642;22.430;2024-02-21T00:55:43;21.38;;;14.48;;
65477;SDS011;53678;39.642;22.430;2024-02-21T00:58:09;21.98;;;13.30;;
65477;SDS011;53678;39.642;22.430;2024-02-21T01:00:35;21.98;;;14.55;;
65477;SDS011;53678;39.642;22.430;2024-02-21T01:03:00;23.05;;;14.38;;
65477;SDS011;53678;39.642;22.430;2024-02-21T01:05:27;21.70;;;13.63;;
65477;SDS011;53678;39.642;22.430;2024-02-21T01:07:54;21.90;;;13.60;;
65477;SDS011;53678;39.642;22.430;2024-02-21T01:10:20;20.10;;;13.63;;
65477;SDS011;53678;39.642;22.430;2024-02-21T01:12:45;19.90;;;12.52;;
65477;SDS011;53678;39.642;22.430;2024-02-21T01:15:11;18.42;;;12.60;;
65477;SDS011;53678;39.642;22.430;2024-02-21T01:17:37;17.80;;;12.15;;
65477;SDS011;53678;39.642;22.430;2024-02-21T01:20:03;20.17;;;12.10;;
65477;SDS011;53678;39.642;22.430;2024-02-21T01:22:31;20.08;;;12.30;;
65477;SDS011;53678;39.642;22.430;2024-02-21T01:24:57;18.55;;;12.52;;
65477;SDS011;53678;39.642;22.430;2024-02-21T01:27:22;19.48;;;12.27;;
65477;SDS011;53678;39.642;22.430;2024-02-21T01:29:48;23.30;;;14.15;;
65477;SDS011;53678;39.642;22.430;2024-02-21T01:32:15;21.75;;;13.50;;
65477;SDS011;53678;39.642;22.430;2024-02-21T01:34:41;20.67;;;13.50;;
65477;SDS011;53678;39.642;22.430;2024-02-21T01:37:08;21.25;;;14.10;;
65477;SDS011;53678;39.642;22.430;2024-02-21T01:39:34;23.05;;;14.05;;
65477;SDS011;53678;39.642;22.430;2024-02-21T01:41:59;18.08;;;12.57;;
65477;SDS011;53678;39.642;22.430;2024-02-21T01:44:25;20.33;;;13.35;;
65477;SDS011;53678;39.642;22.430;2024-02-21T01:46:51;21.92;;;14.75;;
65477;SDS011;53678;39.642;22.430;2024-02-21T01:49:18;24.30;;;14.57;;
65477;SDS011;53678;39.642;22.430;2024-02-21T01:51:45;24.08;;;14.95;;
65477;SDS011;53678;39.642;22.430;2024-02-21T01:54:13;24.08;;;15.10;;
65477;SDS011;53678;39.642;22.430;2024-02-21T01:56:41;22.77;;;14.75;;
65477;SDS011;53678;39.642;22.430;2024-02-21T01:59:08;24.88;;;16.75;;
65477;SDS011;53678;39.642;22.430;2024-02-21T02:01:34;25.85;;;15.57;;
65477;SDS011;53678;39.642;22.430;2024-02-21T02:04:01;24.40;;;15.80;;
65477;SDS011;53678;39.642;22.430;2024-02-21T02:06:30;24.27;;;15.73;;
65477;SDS011;53678;39.642;22.430;2024-02-21T02:08:56;24.75;;;15.35;;
65477;SDS011;53678;39.642;22.430;2024-02-21T02:11:22;24.27;;;16.35;;
65477;SDS011;53678;39.642;22.430;2024-02-21T02:13:48;24.45;;;15.52;;
65477;SDS011;53678;39.642;22.430;2024-02-21T02:16:14;26.70;;;16.08;;
65477;SDS011;53678;39.642;22.430;2024-02-21T02:18:39;22.25;;;16.17;;
65477;SDS011;53678;39.642;22.430;2024-02-21T02:21:05;23.30;;;14.55;;
65477;SDS011;53678;39.642;22.430;2024-02-21T02:23:40;24.13;;;14.80;;
65477;SDS011;53678;39.642;22.430;2024-02-21T02:26:07;25.88;;;15.18;;
65477;SDS011;53678;39.642;22.430;2024-02-21T02:28:32;24.92;;;15.27;;
65477;SDS011;53678;39.642;22.430;2024-02-21T02:30:58;32.95;;;16.65;;
65477;SDS011;53678;39.642;22.430;2024-02-21T02:33:25;27.27;;;14.38;;
65477;SDS011;53678;39.642;22.430;2024-02-21T02:35:51;24.33;;;14.98;;
65477;SDS011;53678;39.642;22.430;2024-02-21T02:38:16;25.40;;;15.30;;
65477;SDS011;53678;39.642;22.430;2024-02-21T02:40:42;22.85;;;15.18;;
65477;SDS011;53678;39.642;22.430;2024-02-21T02:43:08;20.63;;;13.68;;
65477;SDS011;53678;39.642;22.430;2024-02-21T02:45:34;19.23;;;13.43;;
65477;SDS011;53678;39.642;22.430;2024-02-21T02:47:59;18.80;;;13.40;;
65477;SDS011;53678;39.642;22.430;2024-02-21T02:50:25;20.90;;;13.75;;
65477;SDS011;53678;39.642;22.430;2024-02-21T02:52:52;18.77;;;13.00;;
65477;SDS011;53678;39.642;22.430;2024-02-21T02:55:18;21.45;;;12.88;;
65477;SDS011;53678;39.642;22.430;2024-02-21T02:57:44;21.30;;;13.13;;
65477;SDS011;53678;39.642;22.430;2024-02-21T03:00:11;26.95;;;15.25;;
65477;SDS011;53678;39.642;22.430;2024-02-21T03:02:37;26.75;;;14.73;;
65477;SDS011;53678;39.642;22.430;2024-02-21T03:05:11;25.52;;;16.13;;
65477;SDS011;53678;39.642;22.430;2024-02-21T03:07:42;24.10;;;15.45;;
65477;SDS011;53678;39.642;22.430;2024-02-21T03:10:09;24.52;;;16.02;;
65477;SDS011;53678;39.642;22.430;2024-02-21T03:12:35;21.15;;;13.73;;
65477;SDS011;53678;39.642;22.430;2024-02-21T03:15:02;21.55;;;13.68;;
65477;SDS011;53678;39.642;22.430;2024-02-21T03:17:29;21.55;;;13.40;;
65477;SDS011;53678;39.642;22.430;2024-02-21T03:19:55;20.77;;;13.52;;
65477;SDS011;53678;39.642;22.430;2024-02-21T03:22:21;21.98;;;14.43;;
65477;SDS011;53678;39.642;22.430;2024-02-21T03:24:47;24.10;;;14.88;;
65477;SDS011;53678;39.642;22.430;2024-02-21T03:27:13;24.95;;;16.17;;
65477;SDS011;53678;39.642;22.430;2024-02-21T03:29:39;22.83;;;14.82;;
65477;SDS011;53678;39.642;22.430;2024-02-21T03:32:05;23.15;;;14.85;;
65477;SDS011;53678;39.642;22.430;2024-02-21T03:34:30;22.30;;;14.63;;
65477;SDS011;53678;39.642;22.430;2024-02-21T03:36:56;24.45;;;14.93;;
65477;SDS011;53678;39.642;22.430;2024-02-21T03:39:22;25.65;;;15.98;;
65477;SDS011;53678;39.642;22.430;2024-02-21T03:41:48;27.30;;;16.20;;
65477;SDS011;53678;39.642;22.430;2024-02-21T03:44:14;24.85;;;16.40;;
65477;SDS011;53678;39.642;22.430;2024-02-21T03:46:39;25.00;;;16.33;;
65477;SDS011;53678;39.642;22.430;2024-02-21T03:49:06;20.27;;;13.18;;
65477;SDS011;53678;39.642;22.430;2024-02-21T03:51:32;20.45;;;14.00;;
65477;SDS011;53678;39.642;22.430;2024-02-21T03:53:58;25.02;;;15.13;;
65477;SDS011;53678;39.642;22.430;2024-02-21T03:56:23;24.88;;;14.57;;
65477;SDS011;53678;39.642;22.430;2024-02-21T03:58:49;28.10;;;16.13;;
65477;SDS011;53678;39.642;22.430;2024-02-21T04:01:15;24.30;;;16.02;;
65477;SDS011;53678;39.642;22.430;2024-02-21T04:03:42;26.90;;;16.50;;
65477;SDS011;53678;39.642;22.430;2024-02-21T04:06:09;29.55;;;17.70;;
65477;SDS011;53678;39.642;22.430;2024-02-21T04:08:35;28.55;;;16.85;;
65477;SDS011;53678;39.642;22.430;2024-02-21T04:11:00;27.20;;;16.40;;
65477;SDS011;53678;39.642;22.430;2024-02-21T04:13:26;28.77;;;17.67;;
65477;SDS011;53678;39.642;22.430;2024-02-21T04:15:52;26.05;;;16.27;;
65477;SDS011;53678;39.642;22.430;2024-02-21T04:18:17;32.20;;;17.98;;
65477;SDS011;53678;39.642;22.430;2024-02-21T04:20:43;31.65;;;17.40;;
65477;SDS011;53678;39.642;22.430;2024-02-21T04:23:09;34.67;;;17.73;;
65477;SDS011;53678;39.642;22.430;2024-02-21T04:25:35;33.47;;;18.67;;
65477;SDS011;53678;39.642;22.430;2024-02-21T04:28:01;30.30;;;17.13;;
65477;SDS011;53678;39.642;22.430;2024-02-21T04:30:27;30.08;;;17.73;;
65477;SDS011;53678;39.642;22.430;2024-02-21T04:32:53;31.67;;;17.15;;
65477;SDS011;53678;39.642;22.430;2024-02-21T04:35:19;24.55;;;15.95;;
65477;SDS011;53678;39.642;22.430;2024-02-21T04:37:45;23.77;;;15.75;;
65477;SDS011;53678;39.642;22.430;2024-02-21T04:40:12;27.83;;;16.27;;
65477;SDS011;53678;39.642;22.430;2024-02-21T04:42:39;27.08;;;15.38;;
65477;SDS011;53678;39.642;22.430;2024-02-21T04:45:05;23.25;;;15.15;;
65477;SDS011;53678;39.642;22.430;2024-02-21T04:47:32;29.73;;;16.20;;
65477;SDS011;53678;39.642;22.430;2024-02-21T04:49:58;27.45;;;16.45;;
65477;SDS011;53678;39.642;22.430;2024-02-21T04:52:24;26.05;;;14.77;;
65477;SDS011;53678;39.642;22.430;2024-02-21T04:54:50;31.52;;;16.38;;
65477;SDS011;53678;39.642;22.430;2024-02-21T04:57:17;37.15;;;16.85;;
65477;SDS011;53678;39.642;22.430;2024-02-21T04:59:44;24.95;;;16.02;;
65477;SDS011;53678;39.642;22.430;2024-02-21T05:02:48;32.60;;;17.25;;
65477;SDS011;53678;39.642;22.430;2024-02-21T05:05:14;29.77;;;16.65;;
65477;SDS011;53678;39.642;22.430;2024-02-21T05:07:42;31.02;;;16.50;;
65477;SDS011;53678;39.642;22.430;2024-02-21T05:10:07;26.35;;;14.70;;
65477;SDS011;53678;39.642;22.430;2024-02-21T05:12:35;20.77;;;14.27;;
65477;SDS011;53678;39.642;22.430;2024-02-21T05:15:00;30.75;;;15.10;;
65477;SDS011;53678;39.642;22.430;2024-02-21T05:17:27;25.02;;;14.45;;
65477;SDS011;53678;39.642;22.430;2024-02-21T05:19:52;40.25;;;16.90;;
65477;SDS011;53678;39.642;22.430;2024-02-21T05:22:18;42.13;;;16.65;;
65477;SDS011;53678;39.642;22.430;2024-02-21T05:24:44;29.48;;;16.95;;
65477;SDS011;53678;39.642;22.430;2024-02-21T05:27:09;29.55;;;17.33;;
65477;SDS011;53678;39.642;22.430;2024-02-21T05:29:35;25.98;;;15.18;;
65477;SDS011;53678;39.642;22.430;2024-02-21T05:32:01;27.45;;;16.05;;
65477;SDS011;53678;39.642;22.430;2024-02-21T05:34:27;34.22;;;16.95;;
65477;SDS011;53678;39.642;22.430;2024-02-21T05:36:53;27.40;;;16.38;;
65477;SDS011;53678;39.642;22.430;2024-02-21T05:39:19;24.88;;;15.32;;
65477;SDS011;53678;39.642;22.430;2024-02-21T05:41:45;31.02;;;15.30;;
65477;SDS011;53678;39.642;22.430;2024-02-21T05:44:11;21.23;;;14.65;;
65477;SDS011;53678;39.642;22.430;2024-02-21T05:46:37;29.02;;;15.25;;
65477;SDS011;53678;39.642;22.430;2024-02-21T05:49:03;26.98;;;15.95;;
65477;SDS011;53678;39.642;22.430;2024-02-21T05:51:32;28.80;;;14.98;;
65477;SDS011;53678;39.642;22.430;2024-02-21T05:53:58;24.80;;;16.55;;
65477;SDS011;53678;39.642;22.430;2024-02-21T05:56:24;30.40;;;15.57;;
65477;SDS011;53678;39.642;22.430;2024-02-21T05:58:49;40.35;;;16.80;;
65477;SDS011;53678;39.642;22.430;2024-02-21T06:01:15;30.98;;;17.33;;
65477;SDS011;53678;39.642;22.430;2024-02-21T06:03:41;31.15;;;17.92;;
65477;SDS011;53678;39.642;22.430;2024-02-21T06:06:08;35.25;;;17.17;;
65477;SDS011;53678;39.642;22.430;2024-02-21T06:08:33;26.63;;;16.35;;
65477;SDS011;53678;39.642;22.430;2024-02-21T06:11:00;25.05;;;15.70;;
65477;SDS011;53678;39.642;22.430;2024-02-21T06:13:26;36.53;;;16.95;;
65477;SDS011;53678;39.642;22.430;2024-02-21T06:15:53;25.05;;;15.85;;
65477;SDS011;53678;39.642;22.430;2024-02-21T06:18:19;30.23;;;16.88;;
65477;SDS011;53678;39.642;22.430;2024-02-21T06:20:45;24.10;;;15.13;;
65477;SDS011;53678;39.642;22.430;2024-02-21T06:23:12;24.67;;;14.93;;
65477;SDS011;53678;39.642;22.430;2024-02-21T06:25:38;26.95;;;15.23;;
65477;SDS011;53678;39.642;22.430;2024-02-21T06:28:05;22.17;;;13.98;;
65477;SDS011;53678;39.642;22.430;2024-02-21T06:30:32;31.05;;;15.20;;
65477;SDS011;53678;39.642;22.430;2024-02-21T06:32:57;27.23;;;15.10;;
65477;SDS011;53678;39.642;22.430;2024-02-21T06:35:24;22.92;;;13.73;;
65477;SDS011;53678;39.642;22.430;2024-02-21T06:37:50;26.08;;;13.98;;
65477;SDS011;53678;39.642;22.430;2024-02-21T06:40:23;31.65;;;14.65;;
65477;SDS011;53678;39.642;22.430;2024-02-21T06:42:50;26.23;;;15.15;;
65477;SDS011;53678;39.642;22.430;2024-02-21T06:45:15;26.52;;;14.32;;
65477;SDS011;53678;39.642;22.430;2024-02-21T06:47:42;28.15;;;16.13;;
65477;SDS011;53678;39.642;22.430;2024-02-21T06:50:08;30.15;;;15.88;;
65477;SDS011;53678;39.642;22.430;2024-02-21T06:52:35;23.02;;;14.85;;
65477;SDS011;53678;39.642;22.430;2024-02-21T06:55:01;24.48;;;14.77;;
65477;SDS011;53678;39.642;22.430;2024-02-21T06:57:28;24.52;;;15.05;;
65477;SDS011;53678;39.642;22.430;2024-02-21T06:59:54;26.83;;;15.40;;
65477;SDS011;53678;39.642;22.430;2024-02-21T07:02:21;25.02;;;16.23;;
65477;SDS011;53678;39.642;22.430;2024-02-21T07:04:47;35.70;;;17.20;;
65477;SDS011;53678;39.642;22.430;2024-02-21T07:07:13;26.60;;;17.10;;
65477;SDS011;53678;39.642;22.430;2024-02-21T07:09:39;25.88;;;14.60;;
65477;SDS011;53678;39.642;22.430;2024-02-21T07:12:05;23.38;;;14.80;;
65477;SDS011;53678;39.642;22.430;2024-02-21T07:14:35;28.13;;;13.10;;
65477;SDS011;53678;39.642;22.430;2024-02-21T07:17:01;21.90;;;13.65;;
65477;SDS011;53678;39.642;22.430;2024-02-21T07:19:27;20.10;;;12.73;;
65477;SDS011;53678;39.642;22.430;2024-02-21T07:21:52;16.27;;;10.82;;
65477;SDS011;53678;39.642;22.430;2024-02-21T07:24:18;18.35;;;11.77;;
65477;SDS011;53678;39.642;22.430;2024-02-21T07:26:44;13.25;;;9.30;;
65477;SDS011;53678;39.642;22.430;2024-02-21T07:29:10;14.35;;;9.65;;
65477;SDS011;53678;39.642;22.430;2024-02-21T07:31:42;13.40;;;8.65;;
65477;SDS011;53678;39.642;22.430;2024-02-21T07:34:08;16.00;;;9.67;;
65477;SDS011;53678;39.642;22.430;2024-02-21T07:36:34;12.00;;;8.20;;
65477;SDS011;53678;39.642;22.430;2024-02-21T07:39:00;21.98;;;9.27;;
65477;SDS011;53678;39.642;22.430;2024-02-21T07:41:26;14.75;;;9.40;;
65477;SDS011;53678;39.642;22.430;2024-02-21T07:43:51;14.68;;;9.07;;
65477;SDS011;53678;39.642;22.430;2024-02-21T07:46:18;11.55;;;7.85;;
65477;SDS011;53678;39.642;22.430;2024-02-21T07:48:45;12.63;;;8.00;;
65477;SDS011;53678;39.642;22.430;2024-02-21T07:51:12;15.00;;;9.80;;
65477;SDS011;53678;39.642;22.430;2024-02-21T07:53:39;13.38;;;8.77;;
65477;SDS011;53678;39.642;22.430;2024-02-21T07:56:10;15.02;;;9.60;;
65477;SDS011;53678;39.642;22.430;2024-02-21T07:58:39;13.68;;;9.02;;
65477;SDS011;53678;39.642;22.430;2024-02-21T08:01:05;13.65;;;8.88;;
65477;SDS011;53678;39.642;22.430;2024-02-21T08:03:31;21.52;;;9.55;;
65477;SDS011;53678;39.642;22.430;2024-02-21T08:05:57;12.77;;;7.95;;
65477;SDS011;53678;39.642;22.430;2024-02-21T08:08:22;14.18;;;9.07;;
65477;SDS011;53678;39.642;22.430;2024-02-21T08:10:48;13.73;;;8.43;;
65477;SDS011;53678;39.642;22.430;2024-02-21T08:13:15;13.90;;;9.02;;
65477;SDS011;53678;39.642;22.430;2024-02-21T08:15:41;11.55;;;8.45;;
65477;SDS011;53678;39.642;22.430;2024-02-21T08:18:07;13.65;;;8.70;;
65477;SDS011;53678;39.642;22.430;2024-02-21T08:20:33;12.18;;;7.78;;
65477;SDS011;53678;39.642;22.430;2024-02-21T08:22:59;13.32;;;8.48;;
65477;SDS011;53678;39.642;22.430;2024-02-21T08:25:25;12.60;;;8.05;;
65477;SDS011;53678;39.642;22.430;2024-02-21T08:27:51;11.80;;;7.60;;
65477;SDS011;53678;39.642;22.430;2024-02-21T08:30:20;9.63;;;7.25;;
65477;SDS011;53678;39.642;22.430;2024-02-21T08:32:46;10.13;;;7.60;;
65477;SDS011;53678;39.642;22.430;2024-02-21T08:35:11;11.07;;;7.50;;
65477;SDS011;53678;39.642;22.430;2024-02-21T08:37:38;10.70;;;7.30;;
65477;SDS011;53678;39.642;22.430;2024-02-21T08:40:04;10.25;;;7.28;;
65477;SDS011;53678;39.642;22.430;2024-02-21T08:42:35;12.45;;;7.25;;
65477;SDS011;53678;39.642;22.430;2024-02-21T08:45:02;10.95;;;7.80;;
65477;SDS011;53678;39.642;22.430;2024-02-21T08:47:28;11.80;;;8.23;;
65477;SDS011;53678;39.642;22.430;2024-02-21T08:49:54;11.15;;;7.72;;
65477;SDS011;53678;39.642;22.430;2024-02-21T08:52:19;14.45;;;8.93;;
65477;SDS011;53678;39.642;22.430;2024-02-21T08:54:45;12.35;;;8.00;;
65477;SDS011;53678;39.642;22.430;2024-02-21T08:57:11;14.68;;;9.00;;
65477;SDS011;53678;39.642;22.430;2024-02-21T08:59:39;12.60;;;7.85;;
65477;SDS011;53678;39.642;22.430;2024-02-21T09:02:06;14.18;;;8.18;;
65477;SDS011;53678;39.642;22.430;2024-02-21T09:04:33;11.68;;;8.35;;
65477;SDS011;53678;39.642;22.430;2024-02-21T09:07:00;11.27;;;8.40;;
65477;SDS011;53678;39.642;22.430;2024-02-21T09:09:25;11.68;;;7.82;;
65477;SDS011;53678;39.642;22.430;2024-02-21T09:11:53;11.50;;;7.90;;
65477;SDS011;53678;39.642;22.430;2024-02-21T09:14:19;12.73;;;7.68;;
65477;SDS011;53678;39.642;22.430;2024-02-21T09:16:46;12.82;;;8.15;;
65477;SDS011;53678;39.642;22.430;2024-02-21T09:19:11;13.65;;;8.35;;
65477;SDS011;53678;39.642;22.430;2024-02-21T09:21:38;12.60;;;8.05;;
65477;SDS011;53678;39.642;22.430;2024-02-21T09:24:05;13.18;;;8.32;;
65477;SDS011;53678;39.642;22.430;2024-02-21T09:26:31;13.65;;;8.32;;
65477;SDS011;53678;39.642;22.430;2024-02-21T09:28:56;13.02;;;7.40;;
65477;SDS011;53678;39.642;22.430;2024-02-21T09:31:23;12.15;;;7.88;;
65477;SDS011;53678;39.642;22.430;2024-02-21T09:33:48;14.25;;;9.02;;
65477;SDS011;53678;39.642;22.430;2024-02-21T09:36:14;12.25;;;8.30;;
65477;SDS011;53678;39.642;22.430;2024-02-21T09:38:40;10.68;;;7.55;;
65477;SDS011;53678;39.642;22.430;2024-02-21T09:41:16;12.23;;;8.13;;
65477;SDS011;53678;39.642;22.430;2024-02-21T09:43:44;11.55;;;7.88;;
65477;SDS011;53678;39.642;22.430;2024-02-21T09:46:16;12.80;;;8.10;;
65477;SDS011;53678;39.642;22.430;2024-02-21T09:51:51;10.43;;;7.68;;
65477;SDS011;53678;39.642;22.430;2024-02-21T09:54:21;11.00;;;7.82;;
65477;SDS011;53678;39.642;22.430;2024-02-21T09:56:47;11.45;;;8.20;;
65477;SDS011;53678;39.642;22.430;2024-02-21T09:59:16;9.55;;;7.47;;
65477;SDS011;53678;39.642;22.430;2024-02-21T10:01:42;10.70;;;7.50;;
65477;SDS011;53678;39.642;22.430;2024-02-21T10:04:09;9.88;;;6.60;;
65477;SDS011;53678;39.642;22.430;2024-02-21T10:06:35;8.88;;;6.75;;
65477;SDS011;53678;39.642;22.430;2024-02-21T10:09:03;12.00;;;6.93;;
65477;SDS011;53678;39.642;22.430;2024-02-21T10:11:29;14.07;;;8.52;;
65477;SDS011;53678;39.642;22.430;2024-02-21T10:14:07;12.38;;;8.15;;
65477;SDS011;53678;39.642;22.430;2024-02-21T10:16:33;11.25;;;7.97;;
65477;SDS011;53678;39.642;22.430;2024-02-21T10:18:59;11.75;;;8.05;;
65477;SDS011;53678;39.642;22.430;2024-02-21T10:21:25;10.38;;;7.50;;
65477;SDS011;53678;39.642;22.430;2024-02-21T10:23:51;12.45;;;8.02;;
65477;SDS011;53678;39.642;22.430;2024-02-21T10:26:18;10.90;;;7.25;;
65477;SDS011;53678;39.642;22.430;2024-02-21T10:28:45;11.43;;;7.53;;
65477;SDS011;53678;39.642;22.430;2024-02-21T10:31:20;12.10;;;8.50;;
65477;SDS011;53678;39.642;22.430;2024-02-21T10:33:56;12.43;;;8.73;;
65477;SDS011;53678;39.642;22.430;2024-02-21T10:36:28;19.98;;;9.18;;
65477;SDS011;53678;39.642;22.430;2024-02-21T10:38:54;13.07;;;9.32;;
65477;SDS011;53678;39.642;22.430;2024-02-21T10:41:21;13.77;;;8.95;;
65477;SDS011;53678;39.642;22.430;2024-02-21T10:43:51;14.00;;;9.50;;
65477;SDS011;53678;39.642;22.430;2024-02-21T10:46:22;15.38;;;8.57;;
65477;SDS011;53678;39.642;22.430;2024-02-21T10:48:53;11.95;;;8.63;;
65477;SDS011;53678;39.642;22.430;2024-02-21T10:51:34;15.25;;;8.50;;
65477;SDS011;53678;39.642;22.430;2024-02-21T10:57:10;19.75;;;10.18;;
65477;SDS011;53678;39.642;22.430;2024-02-21T10:59:38;14.32;;;9.48;;
65477;SDS011;53678;39.642;22.430;2024-02-21T11:02:05;12.80;;;8.90;;
65477;SDS011;53678;39.642;22.430;2024-02-21T11:04:32;12.73;;;8.32;;
65477;SDS011;53678;39.642;22.430;2024-02-21T11:07:02;15.35;;;8.85;;
65477;SDS011;53678;39.642;22.430;2024-02-21T11:09:31;12.77;;;8.25;;
65477;SDS011;53678;39.642;22.430;2024-02-21T11:11:57;13.55;;;8.68;;
65477;SDS011;53678;39.642;22.430;2024-02-21T11:14:26;13.07;;;8.40;;
65477;SDS011;53678;39.642;22.430;2024-02-21T11:16:54;16.40;;;8.75;;
65477;SDS011;53678;39.642;22.430;2024-02-21T11:19:22;15.75;;;10.07;;
65477;SDS011;53678;39.642;22.430;2024-02-21T11:21:49;14.90;;;9.55;;
65477;SDS011;53678;39.642;22.430;2024-02-21T11:24:31;15.63;;;9.60;;
65477;SDS011;53678;39.642;22.430;2024-02-21T11:27:14;15.85;;;9.90;;
65477;SDS011;53678;39.642;22.430;2024-02-21T11:29:44;13.60;;;8.00;;
65477;SDS011;53678;39.642;22.430;2024-02-21T11:32:17;12.18;;;8.60;;
65477;SDS011;53678;39.642;22.430;2024-02-21T11:34:58;12.60;;;7.78;;
65477;SDS011;53678;39.642;22.430;2024-02-21T11:37:35;14.95;;;9.43;;
65477;SDS011;53678;39.642;22.430;2024-02-21T11:40:05;12.88;;;9.60;;
65477;SDS011;53678;39.642;22.430;2024-02-21T11:42:35;17.23;;;9.20;;
65477;SDS011;53678;39.642;22.430;2024-02-21T11:45:00;12.88;;;8.60;;
65477;SDS011;53678;39.642;22.430;2024-02-21T11:47:28;12.27;;;8.50;;
65477;SDS011;53678;39.642;22.430;2024-02-21T11:49:54;14.32;;;8.57;;
65477;SDS011;53678;39.642;22.430;2024-02-21T11:52:23;12.05;;;8.73;;
65477;SDS011;53678;39.642;22.430;2024-02-21T11:54:53;12.77;;;8.63;;
65477;SDS011;53678;39.642;22.430;2024-02-21T11:57:22;15.27;;;10.63;;
65477;SDS011;53678;39.642;22.430;2024-02-21T11:59:54;10.68;;;7.78;;
65477;SDS011;53678;39.642;22.430;2024-02-21T12:02:20;11.70;;;8.20;;
65477;SDS011;53678;39.642;22.430;2024-02-21T12:04:46;11.32;;;8.00;;
65477;SDS011;53678;39.642;22.430;2024-02-21T12:07:14;11.93;;;8.60;;
65477;SDS011;53678;39.642;22.430;2024-02-21T12:09:41;12.52;;;8.13;;
65477;SDS011;53678;39.642;22.430;2024-02-21T12:12:07;12.15;;;7.78;;
65477;SDS011;53678;39.642;22.430;2024-02-21T12:14:34;12.95;;;9.25;;
65477;SDS011;53678;39.642;22.430;2024-02-21T12:17:00;12.88;;;8.73;;
65477;SDS011;53678;39.642;22.430;2024-02-21T12:19:29;12.82;;;8.43;;
65477;SDS011;53678;39.642;22.430;2024-02-21T12:21:56;15.40;;;9.50;;
65477;SDS011;53678;39.642;22.430;2024-02-21T12:24:24;10.43;;;8.23;;
65477;SDS011;53678;39.642;22.430;2024-02-21T12:26:51;12.80;;;8.30;;
65477;SDS011;53678;39.642;22.430;2024-02-21T12:29:18;10.93;;;8.15;;
65477;SDS011;53678;39.642;22.430;2024-02-21T12:31:48;10.07;;;7.57;;
65477;SDS011;53678;39.642;22.430;2024-02-21T12:34:14;12.93;;;8.32;;
65477;SDS011;53678;39.642;22.430;2024-02-21T12:36:44;12.25;;;7.80;;
65477;SDS011;53678;39.642;22.430;2024-02-21T12:39:13;11.10;;;7.50;;
65477;SDS011;53678;39.642;22.430;2024-02-21T12:41:39;11.30;;;8.23;;
65477;SDS011;53678;39.642;22.430;2024-02-21T12:44:06;14.38;;;8.80;;
65477;SDS011;53678;39.642;22.430;2024-02-21T12:46:33;12.70;;;7.65;;
65477;SDS011;53678;39.642;22.430;2024-02-21T12:49:00;11.02;;;8.40;;
65477;SDS011;53678;39.642;22.430;2024-02-21T12:51:26;13.57;;;7.68;;
65477;SDS011;53678;39.642;22.430;2024-02-21T12:53:53;12.77;;;8.38;;
65477;SDS011;53678;39.642;22.430;2024-02-21T12:56:19;11.90;;;8.98;;
65477;SDS011;53678;39.642;22.430;2024-02-21T12:58:44;11.43;;;7.63;;
65477;SDS011;53678;39.642;22.430;2024-02-21T13:01:10;10.35;;;7.97;;
65477;SDS011;53678;39.642;22.430;2024-02-21T13:03:37;12.02;;;8.68;;
65477;SDS011;53678;39.642;22.430;2024-02-21T13:06:03;11.68;;;8.98;;
65477;SDS011;53678;39.642;22.430;2024-02-21T13:08:29;11.80;;;8.32;;
65477;SDS011;53678;39.642;22.430;2024-02-21T13:10:55;12.35;;;8.43;;
65477;SDS011;53678;39.642;22.430;2024-02-21T13:13:21;12.25;;;8.50;;
65477;SDS011;53678;39.642;22.430;2024-02-21T13:15:46;11.27;;;8.35;;
65477;SDS011;53678;39.642;22.430;2024-02-21T13:18:12;11.70;;;8.13;;
65477;SDS011;53678;39.642;22.430;2024-02-21T13:20:38;9.48;;;7.15;;
65477;SDS011;53678;39.642;22.430;2024-02-21T13:23:03;11.52;;;7.88;;
65477;SDS011;53678;39.642;22.430;2024-02-21T13:25:30;19.00;;;10.52;;
65477;SDS011;53678;39.642;22.430;2024-02-21T13:27:55;10.55;;;7.45;;
65477;SDS011;53678;39.642;22.430;2024-02-21T13:30:21;11.00;;;7.82;;
65477;SDS011;53678;39.642;22.430;2024-02-21T13:32:48;12.50;;;7.85;;
65477;SDS011;53678;39.642;22.430;2024-02-21T13:35:14;12.80;;;8.23;;
65477;SDS011;53678;39.642;22.430;2024-02-21T13:37:40;11.65;;;7.57;;
65477;SDS011;53678;39.642;22.430;2024-02-21T13:40:07;14.60;;;8.00;;
65477;SDS011;53678;39.642;22.430;2024-02-21T13:42:36;12.20;;;8.38;;
65477;SDS011;53678;39.642;22.430;2024-02-21T13:45:03;11.75;;;7.90;;
65477;SDS011;53678;39.642;22.430;2024-02-21T13:47:33;12.02;;;7.72;;
65477;SDS011;53678;39.642;22.430;2024-02-21T13:50:01;12.57;;;8.43;;
65477;SDS011;53678;39.642;22.430;2024-02-21T13:52:30;12.23;;;7.53;;
65477;SDS011;53678;39.642;22.430;2024-02-21T13:54:56;11.25;;;8.13;;
65477;SDS011;53678;39.642;22.430;2024-02-21T13:57:22;14.25;;;8.80;;
65477;SDS011;53678;39.642;22.430;2024-02-21T13:59:49;11.90;;;8.27;;
65477;SDS011;53678;39.642;22.430;2024-02-21T14:02:16;10.95;;;8.23;;
65477;SDS011;53678;39.642;22.430;2024-02-21T14:04:42;12.13;;;8.35;;
65477;SDS011;53678;39.642;22.430;2024-02-21T14:07:08;11.68;;;8.40;;
65477;SDS011;53678;39.642;22.430;2024-02-21T14:09:34;16.00;;;8.70;;
65477;SDS011;53678;39.642;22.430;2024-02-21T14:12:00;11.05;;;8.00;;
65477;SDS011;53678;39.642;22.430;2024-02-21T14:14:26;10.65;;;7.40;;
65477;SDS011;53678;39.642;22.430;2024-02-21T14:16:52;11.05;;;7.85;;
65477;SDS011;53678;39.642;22.430;2024-02-21T14:19:17;11.85;;;7.72;;
65477;SDS011;53678;39.642;22.430;2024-02-21T14:21:44;11.88;;;8.32;;